sensor_id;sensor_type;location;lat;lon;timestamp;pressure;altitude;pressure_sealevel;temperature;humidity
23223;BME280;11780;13.904;100.620;2022-09-09T00:04:11;101093.44;;;28.31;83.80
23223;BME280;11780;13.904;100.620;2022-09-09T00:09:46;101099.22;;;28.30;83.89
23223;BME280;11780;13.904;100.620;2022-09-09T00:12:40;101113.50;;;28.32;84.04
23223;BME280;11780;13.904;100.620;2022-09-09T00:15:14;101102.22;;;28.33;83.96
23223;BME280;11780;13.904;100.620;2022-09-09T00:23:36;101094.75;;;28.34;84.02
23223;BME280;11780;13.904;100.620;2022-09-09T00:26:27;101108.53;;;28.34;84.11
23223;BME280;11780;13.904;100.620;2022-09-09T00:32:20;101114.56;;;28.36;84.03
23223;BME280;11780;13.904;100.620;2022-09-09T00:38:05;101127.47;;;28.35;83.67
23223;BME280;11780;13.904;100.620;2022-09-09T00:40:59;101138.19;;;28.37;83.83
23223;BME280;11780;13.904;100.620;2022-09-09T00:43:35;101140.13;;;28.36;83.35
23223;BME280;11780;13.904;100.620;2022-09-09T00:55:25;101153.81;;;28.41;82.77
23223;BME280;11780;13.904;100.620;2022-09-09T00:57:58;101159.84;;;28.44;82.74
23223;BME280;11780;13.904;100.620;2022-09-09T01:01:19;101164.50;;;28.43;82.58
23223;BME280;11780;13.904;100.620;2022-09-09T01:03:55;101168.63;;;28.46;82.50
23223;BME280;11780;13.904;100.620;2022-09-09T01:06:36;101163.94;;;28.46;82.48
23223;BME280;11780;13.904;100.620;2022-09-09T01:09:27;101168.31;;;28.47;82.55
23223;BME280;11780;13.904;100.620;2022-09-09T01:12:23;101171.59;;;28.49;82.83
23223;BME280;11780;13.904;100.620;2022-09-09T01:17:52;101183.13;;;28.51;82.30
23223;BME280;11780;13.904;100.620;2022-09-09T01:20:36;101187.00;;;28.50;82.44
23223;BME280;11780;13.904;100.620;2022-09-09T01:26:35;101193.28;;;28.51;81.87
23223;BME280;11780;13.904;100.620;2022-09-09T01:29:16;101193.59;;;28.49;81.85
23223;BME280;11780;13.904;100.620;2022-09-09T01:32:02;101199.63;;;28.51;81.87
23223;BME280;11780;13.904;100.620;2022-09-09T01:34:38;101201.28;;;28.52;81.87
23223;BME280;11780;13.904;100.620;2022-09-09T01:37:10;101203.72;;;28.54;82.17
23223;BME280;11780;13.904;100.620;2022-09-09T01:39:43;101201.50;;;28.56;82.40
23223;BME280;11780;13.904;100.620;2022-09-09T01:42:16;101213.34;;;28.56;82.60
23223;BME280;11780;13.904;100.620;2022-09-09T01:44:47;101214.34;;;28.61;82.31
23223;BME280;11780;13.904;100.620;2022-09-09T01:47:17;101214.94;;;28.57;82.35
23223;BME280;11780;13.904;100.620;2022-09-09T01:50:10;101215.78;;;28.58;82.34
23223;BME280;11780;13.904;100.620;2022-09-09T01:52:46;101218.47;;;28.63;82.16
23223;BME280;11780;13.904;100.620;2022-09-09T02:04:03;101233.56;;;28.66;81.44
23223;BME280;11780;13.904;100.620;2022-09-09T02:06:40;101235.00;;;28.63;81.21
23223;BME280;11780;13.904;100.620;2022-09-09T02:09:24;101238.00;;;28.62;80.67
23223;BME280;11780;13.904;100.620;2022-09-09T02:12:13;101227.84;;;28.62;81.06
23223;BME280;11780;13.904;100.620;2022-09-09T02:14:56;101242.41;;;28.63;81.14
23223;BME280;11780;13.904;100.620;2022-09-09T02:17:38;101236.31;;;28.66;81.25
23223;BME280;11780;13.904;100.620;2022-09-09T02:20:15;101245.69;;;28.65;81.08
23223;BME280;11780;13.904;100.620;2022-09-09T02:22:57;101239.38;;;28.64;81.05
23223;BME280;11780;13.904;100.620;2022-09-09T02:25:29;101243.16;;;28.68;81.06
23223;BME280;11780;13.904;100.620;2022-09-09T02:28:12;101235.22;;;28.67;81.51
23223;BME280;11780;13.904;100.620;2022-09-09T02:30:45;101243.16;;;28.68;81.65
23223;BME280;11780;13.904;100.620;2022-09-09T02:33:17;101242.28;;;28.73;81.75
23223;BME280;11780;13.904;100.620;2022-09-09T02:35:51;101241.75;;;28.71;81.70
23223;BME280;11780;13.904;100.620;2022-09-09T02:38:26;101238.47;;;28.69;81.38
23223;BME280;11780;13.904;100.620;2022-09-09T02:41:07;101241.25;;;28.69;80.94
23223;BME280;11780;13.904;100.620;2022-09-09T02:43:38;101240.94;;;28.70;80.53
23223;BME280;11780;13.904;100.620;2022-09-09T02:46:32;101243.69;;;28.70;80.27
23223;BME280;11780;13.904;100.620;2022-09-09T02:49:10;101245.63;;;28.70;80.13
23223;BME280;11780;13.904;100.620;2022-09-09T02:51:53;101246.16;;;28.72;80.48
23223;BME280;11780;13.904;100.620;2022-09-09T02:54:30;101234.88;;;28.74;80.76
23223;BME280;11780;13.904;100.620;2022-09-09T02:57:27;101245.88;;;28.74;81.17
23223;BME280;11780;13.904;100.620;2022-09-09T03:00:00;101242.53;;;28.77;81.17
23223;BME280;11780;13.904;100.620;2022-09-09T03:02:33;101240.59;;;28.77;81.11
23223;BME280;11780;13.904;100.620;2022-09-09T03:05:06;101240.06;;;28.75;81.34
23223;BME280;11780;13.904;100.620;2022-09-09T03:07:37;101237.31;;;28.75;81.19
23223;BME280;11780;13.904;100.620;2022-09-09T03:10:09;101243.34;;;28.77;81.26
23223;BME280;11780;13.904;100.620;2022-09-09T03:12:41;101240.00;;;28.80;80.95
23223;BME280;11780;13.904;100.620;2022-09-09T03:15:12;101236.19;;;28.76;81.18
23223;BME280;11780;13.904;100.620;2022-09-09T03:17:43;101230.41;;;28.78;80.84
23223;BME280;11780;13.904;100.620;2022-09-09T03:20:14;101231.75;;;28.80;80.58
23223;BME280;11780;13.904;100.620;2022-09-09T03:22:44;101238.88;;;28.81;80.77
23223;BME280;11780;13.904;100.620;2022-09-09T03:25:15;101232.84;;;28.79;80.79
23223;BME280;11780;13.904;100.620;2022-09-09T03:27:46;101231.22;;;28.78;80.23
23223;BME280;11780;13.904;100.620;2022-09-09T03:30:16;101227.88;;;28.81;80.50
23223;BME280;11780;13.904;100.620;2022-09-09T03:32:47;101237.78;;;28.82;80.52
23223;BME280;11780;13.904;100.620;2022-09-09T03:35:18;101229.50;;;28.82;80.39
23223;BME280;11780;13.904;100.620;2022-09-09T03:37:48;101231.16;;;28.83;80.24
23223;BME280;11780;13.904;100.620;2022-09-09T03:40:20;101239.41;;;28.83;80.22
23223;BME280;11780;13.904;100.620;2022-09-09T03:42:50;101232.28;;;28.82;79.79
23223;BME280;11780;13.904;100.620;2022-09-09T03:45:21;101229.78;;;28.81;79.98
23223;BME280;11780;13.904;100.620;2022-09-09T03:47:51;101230.31;;;28.83;79.75
23223;BME280;11780;13.904;100.620;2022-09-09T03:50:21;101227.34;;;28.79;79.87
23223;BME280;11780;13.904;100.620;2022-09-09T03:52:56;101237.25;;;28.80;79.30
23223;BME280;11780;13.904;100.620;2022-09-09T03:55:26;101230.63;;;28.81;79.05
23223;BME280;11780;13.904;100.620;2022-09-09T03:57:56;101228.91;;;28.85;79.14
23223;BME280;11780;13.904;100.620;2022-09-09T04:00:27;101229.44;;;28.88;79.04
23223;BME280;11780;13.904;100.620;2022-09-09T04:02:58;101230.56;;;28.86;78.77
23223;BME280;11780;13.904;100.620;2022-09-09T04:05:29;101230.25;;;28.88;78.91
23223;BME280;11780;13.904;100.620;2022-09-09T04:07:59;101219.56;;;28.86;78.63
23223;BME280;11780;13.904;100.620;2022-09-09T04:10:30;101224.97;;;28.92;78.71
23223;BME280;11780;13.904;100.620;2022-09-09T04:13:03;101217.81;;;28.91;79.04
23223;BME280;11780;13.904;100.620;2022-09-09T04:15:34;101215.06;;;28.91;78.92
23223;BME280;11780;13.904;100.620;2022-09-09T04:18:05;101217.59;;;28.87;78.55
23223;BME280;11780;13.904;100.620;2022-09-09T04:20:37;101215.06;;;28.91;78.18
23223;BME280;11780;13.904;100.620;2022-09-09T04:23:09;101202.72;;;28.88;78.41
23223;BME280;11780;13.904;100.620;2022-09-09T04:25:44;101196.63;;;28.91;78.32
23223;BME280;11780;13.904;100.620;2022-09-09T04:28:16;101194.66;;;28.92;78.38
23223;BME280;11780;13.904;100.620;2022-09-09T04:30:47;101195.50;;;28.92;78.58
23223;BME280;11780;13.904;100.620;2022-09-09T04:33:19;101184.50;;;28.92;78.35
23223;BME280;11780;13.904;100.620;2022-09-09T04:35:51;101184.19;;;28.94;78.04
23223;BME280;11780;13.904;100.620;2022-09-09T04:38:25;101177.34;;;28.91;78.12
23223;BME280;11780;13.904;100.620;2022-09-09T04:40:55;101169.88;;;28.92;78.20
23223;BME280;11780;13.904;100.620;2022-09-09T04:43:26;101169.88;;;28.92;78.32
23223;BME280;11780;13.904;100.620;2022-09-09T04:45:58;101163.25;;;28.93;78.14
23223;BME280;11780;13.904;100.620;2022-09-09T04:48:31;101153.38;;;28.92;78.11
23223;BME280;11780;13.904;100.620;2022-09-09T04:51:05;101151.13;;;28.94;78.25
23223;BME280;11780;13.904;100.620;2022-09-09T04:53:36;101149.50;;;28.93;77.93
23223;BME280;11780;13.904;100.620;2022-09-09T04:56:13;101140.63;;;28.96;77.64
23223;BME280;11780;13.904;100.620;2022-09-09T04:58:49;101133.19;;;28.96;77.80
23223;BME280;11780;13.904;100.620;2022-09-09T05:01:22;101133.19;;;28.96;78.28
23223;BME280;11780;13.904;100.620;2022-09-09T05:04:02;101124.63;;;28.98;77.67
23223;BME280;11780;13.904;100.620;2022-09-09T05:06:33;101118.59;;;28.96;77.60
23223;BME280;11780;13.904;100.620;2022-09-09T05:09:05;101107.59;;;28.96;77.66
23223;BME280;11780;13.904;100.620;2022-09-09T05:11:36;101108.91;;;28.98;77.61
23223;BME280;11780;13.904;100.620;2022-09-09T05:14:15;101106.47;;;28.97;77.59
23223;BME280;11780;13.904;100.620;2022-09-09T05:16:45;101098.72;;;28.99;77.51
23223;BME280;11780;13.904;100.620;2022-09-09T05:19:16;101096.56;;;28.96;77.74
23223;BME280;11780;13.904;100.620;2022-09-09T05:21:49;101086.06;;;28.98;77.10
23223;BME280;11780;13.904;100.620;2022-09-09T05:24:30;101086.88;;;28.98;77.15
23223;BME280;11780;13.904;100.620;2022-09-09T05:27:04;101081.09;;;29.00;77.28
23223;BME280;11780;13.904;100.620;2022-09-09T05:29:35;101072.81;;;29.00;77.01
23223;BME280;11780;13.904;100.620;2022-09-09T05:32:07;101072.00;;;28.99;77.35
23223;BME280;11780;13.904;100.620;2022-09-09T05:34:45;101056.31;;;29.00;77.10
23223;BME280;11780;13.904;100.620;2022-09-09T05:37:17;101057.94;;;29.01;77.02
23223;BME280;11780;13.904;100.620;2022-09-09T05:39:48;101055.19;;;29.01;76.77
23223;BME280;11780;13.904;100.620;2022-09-09T05:42:19;101053.22;;;29.01;76.73
23223;BME280;11780;13.904;100.620;2022-09-09T05:44:49;101049.69;;;29.01;76.53
23223;BME280;11780;13.904;100.620;2022-09-09T05:47:21;101040.28;;;29.02;76.41
23223;BME280;11780;13.904;100.620;2022-09-09T05:49:51;101035.28;;;29.04;76.22
23223;BME280;11780;13.904;100.620;2022-09-09T05:52:23;101033.03;;;29.06;75.81
23223;BME280;11780;13.904;100.620;2022-09-09T05:54:57;101019.78;;;29.08;76.02
23223;BME280;11780;13.904;100.620;2022-09-09T05:57:28;101003.84;;;29.05;75.60
23223;BME280;11780;13.904;100.620;2022-09-09T05:59:58;101006.13;;;29.03;75.77
23223;BME280;11780;13.904;100.620;2022-09-09T06:02:39;100997.53;;;29.05;75.72
23223;BME280;11780;13.904;100.620;2022-09-09T06:05:13;100993.16;;;29.04;76.06
23223;BME280;11780;13.904;100.620;2022-09-09T06:07:46;100987.03;;;29.07;75.66
23223;BME280;11780;13.904;100.620;2022-09-09T06:10:17;100982.06;;;29.09;76.09
23223;BME280;11780;13.904;100.620;2022-09-09T06:13:02;100972.44;;;29.06;75.91
23223;BME280;11780;13.904;100.620;2022-09-09T06:15:32;100968.56;;;29.07;75.91
23223;BME280;11780;13.904;100.620;2022-09-09T06:18:04;100961.66;;;29.10;75.85
23223;BME280;11780;13.904;100.620;2022-09-09T06:20:34;100947.88;;;29.10;75.56
23223;BME280;11780;13.904;100.620;2022-09-09T06:23:05;100941.25;;;29.11;75.43
23223;BME280;11780;13.904;100.620;2022-09-09T06:25:35;100937.16;;;29.08;75.27
23223;BME280;11780;13.904;100.620;2022-09-09T06:28:05;100931.34;;;29.10;75.19
23223;BME280;11780;13.904;100.620;2022-09-09T06:30:39;100930.22;;;29.11;75.08
23223;BME280;11780;13.904;100.620;2022-09-09T06:33:10;100923.59;;;29.12;74.78
23223;BME280;11780;13.904;100.620;2022-09-09T06:35:42;100915.34;;;29.12;75.00
23223;BME280;11780;13.904;100.620;2022-09-09T06:38:12;100913.91;;;29.14;74.91
23223;BME280;11780;13.904;100.620;2022-09-09T06:40:42;100908.69;;;29.13;75.27
23223;BME280;11780;13.904;100.620;2022-09-09T06:43:14;100900.75;;;29.11;75.15
23223;BME280;11780;13.904;100.620;2022-09-09T06:46:14;100903.41;;;29.16;74.91
23223;BME280;11780;13.904;100.620;2022-09-09T06:48:46;100901.44;;;29.17;74.76
23223;BME280;11780;13.904;100.620;2022-09-09T06:51:19;100884.13;;;29.16;74.81
23223;BME280;11780;13.904;100.620;2022-09-09T06:53:55;100884.72;;;29.13;74.96
23223;BME280;11780;13.904;100.620;2022-09-09T06:56:31;100881.34;;;29.16;74.84
23223;BME280;11780;13.904;100.620;2022-09-09T06:59:08;100875.53;;;29.18;74.91
23223;BME280;11780;13.904;100.620;2022-09-09T07:01:41;100867.59;;;29.16;74.42
23223;BME280;11780;13.904;100.620;2022-09-09T07:04:23;100870.03;;;29.18;74.37
23223;BME280;11780;13.904;100.620;2022-09-09T07:06:56;100866.47;;;29.17;74.62
23223;BME280;11780;13.904;100.620;2022-09-09T07:09:26;100857.38;;;29.17;74.12
23223;BME280;11780;13.904;100.620;2022-09-09T07:11:57;100843.31;;;29.19;74.04
23223;BME280;11780;13.904;100.620;2022-09-09T07:14:33;100842.19;;;29.20;74.04
23223;BME280;11780;13.904;100.620;2022-09-09T07:17:07;100828.88;;;29.22;74.13
23223;BME280;11780;13.904;100.620;2022-09-09T07:19:39;100824.50;;;29.21;73.72
23223;BME280;11780;13.904;100.620;2022-09-09T07:22:10;100821.47;;;29.22;73.89
23223;BME280;11780;13.904;100.620;2022-09-09T07:24:40;100820.63;;;29.22;73.63
23223;BME280;11780;13.904;100.620;2022-09-09T07:27:12;100806.84;;;29.22;73.78
23223;BME280;11780;13.904;100.620;2022-09-09T07:29:42;100809.94;;;29.20;73.94
23223;BME280;11780;13.904;100.620;2022-09-09T07:32:13;100811.22;;;29.23;73.92
23223;BME280;11780;13.904;100.620;2022-09-09T07:34:43;100811.75;;;29.25;73.63
23223;BME280;11780;13.904;100.620;2022-09-09T07:37:14;100809.59;;;29.22;73.63
23223;BME280;11780;13.904;100.620;2022-09-09T07:39:45;100797.47;;;29.23;73.97
23223;BME280;11780;13.904;100.620;2022-09-09T07:42:19;100792.28;;;29.21;73.82
23223;BME280;11780;13.904;100.620;2022-09-09T07:44:50;100790.31;;;29.22;74.02
23223;BME280;11780;13.904;100.620;2022-09-09T07:47:26;100784.81;;;29.22;73.69
23223;BME280;11780;13.904;100.620;2022-09-09T07:49:58;100785.66;;;29.22;73.48
23223;BME280;11780;13.904;100.620;2022-09-09T07:52:31;100792.97;;;29.27;73.44
23223;BME280;11780;13.904;100.620;2022-09-09T07:55:21;100789.59;;;29.30;73.12
23223;BME280;11780;13.904;100.620;2022-09-09T07:57:56;100784.88;;;29.30;72.69
23223;BME280;11780;13.904;100.620;2022-09-09T08:00:27;100780.50;;;29.29;73.27
23223;BME280;11780;13.904;100.620;2022-09-09T08:03:01;100776.94;;;29.29;73.04
23223;BME280;11780;13.904;100.620;2022-09-09T08:05:34;100773.69;;;29.27;72.96
23223;BME280;11780;13.904;100.620;2022-09-09T08:08:04;100767.56;;;29.30;73.19
23223;BME280;11780;13.904;100.620;2022-09-09T08:10:36;100770.31;;;29.30;73.25
23223;BME280;11780;13.904;100.620;2022-09-09T08:13:10;100770.59;;;29.28;73.12
23223;BME280;11780;13.904;100.620;2022-09-09T08:15:46;100770.81;;;29.32;73.21
23223;BME280;11780;13.904;100.620;2022-09-09T08:18:19;100775.81;;;29.30;72.88
23223;BME280;11780;13.904;100.620;2022-09-09T08:20:49;100772.44;;;29.33;73.27
23223;BME280;11780;13.904;100.620;2022-09-09T08:23:20;100759.28;;;29.30;73.03
23223;BME280;11780;13.904;100.620;2022-09-09T08:25:51;100768.06;;;29.32;73.33
23223;BME280;11780;13.904;100.620;2022-09-09T08:28:21;100770.81;;;29.32;73.23
23223;BME280;11780;13.904;100.620;2022-09-09T08:30:51;100764.47;;;29.31;72.91
23223;BME280;11780;13.904;100.620;2022-09-09T08:33:27;100754.78;;;29.34;72.82
23223;BME280;11780;13.904;100.620;2022-09-09T08:35:58;100753.16;;;29.33;72.65
23223;BME280;11780;13.904;100.620;2022-09-09T08:38:28;100749.78;;;29.36;72.72
23223;BME280;11780;13.904;100.620;2022-09-09T08:41:30;100749.16;;;29.39;72.17
23223;BME280;11780;13.904;100.620;2022-09-09T08:53:14;100727.94;;;29.40;71.88
23223;BME280;11780;13.904;100.620;2022-09-09T08:55:58;100734.44;;;29.44;71.66
23223;BME280;11780;13.904;100.620;2022-09-09T08:58:48;100723.75;;;29.42;71.89
23223;BME280;11780;13.904;100.620;2022-09-09T09:13:20;100715.47;;;29.42;70.93
23223;BME280;11780;13.904;100.620;2022-09-09T09:16:06;100715.47;;;29.42;71.35
23223;BME280;11780;13.904;100.620;2022-09-09T09:18:40;100711.09;;;29.41;70.67
23223;BME280;11780;13.904;100.620;2022-09-09T09:21:18;100698.16;;;29.42;71.01
23223;BME280;11780;13.904;100.620;2022-09-09T09:24:01;100687.59;;;29.44;70.46
23223;BME280;11780;13.904;100.620;2022-09-09T09:26:35;100692.31;;;29.43;70.97
23223;BME280;11780;13.904;100.620;2022-09-09T09:29:14;100682.91;;;29.44;70.89
23223;BME280;11780;13.904;100.620;2022-09-09T09:31:53;100677.91;;;29.46;70.68
23223;BME280;11780;13.904;100.620;2022-09-09T09:34:27;100669.13;;;29.44;70.21
23223;BME280;11780;13.904;100.620;2022-09-09T09:37:01;100674.03;;;29.47;70.74
23223;BME280;11780;13.904;100.620;2022-09-09T09:39:33;100680.16;;;29.44;70.64
23223;BME280;11780;13.904;100.620;2022-09-09T09:42:30;100673.19;;;29.47;71.03
23223;BME280;11780;13.904;100.620;2022-09-09T09:48:05;100673.69;;;29.49;70.70
23223;BME280;11780;13.904;100.620;2022-09-09T09:50:55;100669.00;;;29.50;70.70
23223;BME280;11780;13.904;100.620;2022-09-09T09:53:32;100670.75;;;29.45;70.92
23223;BME280;11780;13.904;100.620;2022-09-09T09:56:08;100678.19;;;29.45;70.93
23223;BME280;11780;13.904;100.620;2022-09-09T09:58:52;100674.03;;;29.47;70.78
23223;BME280;11780;13.904;100.620;2022-09-09T10:01:35;100676.28;;;29.45;70.92
23223;BME280;11780;13.904;100.620;2022-09-09T10:06:49;100677.75;;;29.52;70.75
23223;BME280;11780;13.904;100.620;2022-09-09T10:09:28;100675.31;;;29.50;70.83
23223;BME280;11780;13.904;100.620;2022-09-09T10:23:49;100685.53;;;29.50;70.68
23223;BME280;11780;13.904;100.620;2022-09-09T10:35:26;100701.59;;;29.47;71.19
23223;BME280;11780;13.904;100.620;2022-09-09T10:46:34;100726.22;;;29.53;71.41
23223;BME280;11780;13.904;100.620;2022-09-09T10:52:24;100732.56;;;29.53;71.65
23223;BME280;11780;13.904;100.620;2022-09-09T10:57:51;100749.13;;;29.53;71.58
23223;BME280;11780;13.904;100.620;2022-09-09T11:00:40;100757.06;;;29.55;71.85
23223;BME280;11780;13.904;100.620;2022-09-09T11:03:25;100760.94;;;29.54;71.59
23223;BME280;11780;13.904;100.620;2022-09-09T11:06:06;100765.94;;;29.52;71.59
23223;BME280;11780;13.904;100.620;2022-09-09T11:08:40;100765.66;;;29.53;71.72
23223;BME280;11780;13.904;100.620;2022-09-09T11:11:21;100766.44;;;29.54;71.91
23223;BME280;11780;13.904;100.620;2022-09-09T11:13:57;100769.19;;;29.54;72.01
23223;BME280;11780;13.904;100.620;2022-09-09T11:16:40;100769.19;;;29.54;72.01
23223;BME280;11780;13.904;100.620;2022-09-09T11:25:35;100782.97;;;29.54;72.38
23223;BME280;11780;13.904;100.620;2022-09-09T11:42:27;100814.94;;;29.55;72.50
23223;BME280;11780;13.904;100.620;2022-09-09T11:45:09;100816.56;;;29.56;72.76
23223;BME280;11780;13.904;100.620;2022-09-09T11:47:56;100824.31;;;29.54;72.88
23223;BME280;11780;13.904;100.620;2022-09-09T11:50:37;100821.56;;;29.54;72.70
23223;BME280;11780;13.904;100.620;2022-09-09T11:53:18;100829.84;;;29.54;72.97
23223;BME280;11780;13.904;100.620;2022-09-09T11:56:11;100833.09;;;29.56;72.84
23223;BME280;11780;13.904;100.620;2022-09-09T11:58:58;100847.72;;;29.56;73.09
23223;BME280;11780;13.904;100.620;2022-09-09T12:01:34;100848.84;;;29.55;73.10
23223;BME280;11780;13.904;100.620;2022-09-09T12:09:32;100859.53;;;29.57;73.07
23223;BME280;11780;13.904;100.620;2022-09-09T12:12:06;100857.91;;;29.56;73.02
23223;BME280;11780;13.904;100.620;2022-09-09T12:17:44;100873.31;;;29.57;73.32
23223;BME280;11780;13.904;100.620;2022-09-09T12:20:36;100879.34;;;29.59;73.24
23223;BME280;11780;13.904;100.620;2022-09-09T12:23:27;100886.59;;;29.55;73.14
23223;BME280;11780;13.904;100.620;2022-09-09T12:48:10;100935.22;;;29.37;74.02
23223;BME280;11780;13.904;100.620;2022-09-09T12:50:50;100941.25;;;29.39;74.51
23223;BME280;11780;13.904;100.620;2022-09-09T12:53:33;100953.06;;;29.39;74.47
23223;BME280;11780;13.904;100.620;2022-09-09T12:56:17;100953.28;;;29.43;74.59
23223;BME280;11780;13.904;100.620;2022-09-09T12:58:50;100953.69;;;29.50;74.21
23223;BME280;11780;13.904;100.620;2022-09-09T13:01:28;100954.50;;;29.51;74.48
23223;BME280;11780;13.904;100.620;2022-09-09T13:04:00;100966.53;;;29.55;74.71
23223;BME280;11780;13.904;100.620;2022-09-09T13:06:33;100975.13;;;29.53;74.68
23223;BME280;11780;13.904;100.620;2022-09-09T13:09:04;100981.44;;;29.54;74.71
23223;BME280;11780;13.904;100.620;2022-09-09T13:11:42;100977.88;;;29.53;74.67
23223;BME280;11780;13.904;100.620;2022-09-09T13:14:19;100989.91;;;29.57;74.64
23223;BME280;11780;13.904;100.620;2022-09-09T13:17:01;100981.31;;;29.59;75.01
23223;BME280;11780;13.904;100.620;2022-09-09T13:19:38;100991.41;;;29.63;74.51
23223;BME280;11780;13.904;100.620;2022-09-09T13:22:26;100989.28;;;29.60;74.83
23223;BME280;11780;13.904;100.620;2022-09-09T13:25:13;101003.56;;;29.62;75.02
23223;BME280;11780;13.904;100.620;2022-09-09T13:28:19;101009.09;;;29.62;75.73
23223;BME280;11780;13.904;100.620;2022-09-09T13:31:02;101006.53;;;29.66;75.32
23223;BME280;11780;13.904;100.620;2022-09-09T13:33:37;101002.44;;;29.63;75.27
23223;BME280;11780;13.904;100.620;2022-09-09T13:36:11;101004.41;;;29.63;75.57
23223;BME280;11780;13.904;100.620;2022-09-09T13:44:01;101015.09;;;29.65;75.73
23223;BME280;11780;13.904;100.620;2022-09-09T13:49:23;101026.31;;;29.68;75.85
23223;BME280;11780;13.904;100.620;2022-09-09T13:52:03;101031.66;;;29.65;75.41
23223;BME280;11780;13.904;100.620;2022-09-09T13:54:37;101040.44;;;29.67;76.06
23223;BME280;11780;13.904;100.620;2022-09-09T13:57:18;101041.22;;;29.67;76.13
23223;BME280;11780;13.904;100.620;2022-09-09T13:59:49;101048.09;;;29.70;76.36
23223;BME280;11780;13.904;100.620;2022-09-09T14:02:34;101059.91;;;29.70;76.11
23223;BME280;11780;13.904;100.620;2022-09-09T14:05:05;101065.94;;;29.72;75.93
23223;BME280;11780;13.904;100.620;2022-09-09T14:07:36;101075.94;;;29.68;76.20
23223;BME280;11780;13.904;100.620;2022-09-09T14:10:20;101077.81;;;29.73;75.57
23223;BME280;11780;13.904;100.620;2022-09-09T14:12:53;101087.72;;;29.74;75.63
23223;BME280;11780;13.904;100.620;2022-09-09T14:15:35;101086.88;;;29.73;75.42
23223;BME280;11780;13.904;100.620;2022-09-09T14:18:11;101091.28;;;29.74;76.21
23223;BME280;11780;13.904;100.620;2022-09-09T14:20:43;101096.59;;;29.71;76.73
23223;BME280;11780;13.904;100.620;2022-09-09T14:23:14;101099.44;;;29.66;76.48
23223;BME280;11780;13.904;100.620;2022-09-09T14:25:45;101102.91;;;29.71;76.45
23223;BME280;11780;13.904;100.620;2022-09-09T14:28:17;101111.78;;;29.68;76.48
23223;BME280;11780;13.904;100.620;2022-09-09T14:31:08;101119.16;;;29.73;76.86
23223;BME280;11780;13.904;100.620;2022-09-09T14:33:40;101122.53;;;29.70;77.15
23223;BME280;11780;13.904;100.620;2022-09-09T14:36:14;101119.44;;;29.71;77.70
23223;BME280;11780;13.904;100.620;2022-09-09T14:38:46;101131.41;;;29.81;77.60
23223;BME280;11780;13.904;100.620;2022-09-09T14:41:18;101123.34;;;29.84;77.66
23223;BME280;11780;13.904;100.620;2022-09-09T14:43:49;101126.91;;;29.85;78.14
23223;BME280;11780;13.904;100.620;2022-09-09T14:46:23;101135.41;;;29.88;77.71
23223;BME280;11780;13.904;100.620;2022-09-09T14:48:58;101139.28;;;29.87;77.76
23223;BME280;11780;13.904;100.620;2022-09-09T14:51:34;101139.56;;;29.86;78.37
23223;BME280;11780;13.904;100.620;2022-09-09T14:54:04;101145.50;;;29.79;78.27
23223;BME280;11780;13.904;100.620;2022-09-09T14:56:35;101145.38;;;29.70;78.78
23223;BME280;11780;13.904;100.620;2022-09-09T14:59:11;101153.16;;;29.68;78.96
23223;BME280;11780;13.904;100.620;2022-09-09T15:01:52;101147.16;;;29.66;78.97
23223;BME280;11780;13.904;100.620;2022-09-09T15:04:23;101156.41;;;29.70;78.87
23223;BME280;11780;13.904;100.620;2022-09-09T15:06:53;101154.78;;;29.69;79.39
23223;BME280;11780;13.904;100.620;2022-09-09T15:09:24;101150.09;;;29.70;79.89
23223;BME280;11780;13.904;100.620;2022-09-09T15:11:55;101163.88;;;29.70;80.25
23223;BME280;11780;13.904;100.620;2022-09-09T15:14:28;101161.41;;;29.68;80.00
23223;BME280;11780;13.904;100.620;2022-09-09T15:17:03;101158.66;;;29.68;79.94
23223;BME280;11780;13.904;100.620;2022-09-09T15:19:34;101166.94;;;29.68;80.22
23223;BME280;11780;13.904;100.620;2022-09-09T15:22:06;101161.41;;;29.68;80.28
23223;BME280;11780;13.904;100.620;2022-09-09T15:24:37;101161.72;;;29.67;80.18
23223;BME280;11780;13.904;100.620;2022-09-09T15:27:10;101170.53;;;29.69;80.57
23223;BME280;11780;13.904;100.620;2022-09-09T15:29:41;101169.69;;;29.68;80.58
23223;BME280;11780;13.904;100.620;2022-09-09T15:32:15;101169.19;;;29.66;80.28
23223;BME280;11780;13.904;100.620;2022-09-09T15:34:47;101176.84;;;29.69;80.67
23223;BME280;11780;13.904;100.620;2022-09-09T15:37:22;101173.28;;;29.69;81.01
23223;BME280;11780;13.904;100.620;2022-09-09T15:39:52;101182.06;;;29.71;80.86
23223;BME280;11780;13.904;100.620;2022-09-09T15:42:22;101170.53;;;29.69;80.81
23223;BME280;11780;13.904;100.620;2022-09-09T15:44:55;101170.53;;;29.69;80.71
23223;BME280;11780;13.904;100.620;2022-09-09T15:47:26;101172.75;;;29.67;81.03
23223;BME280;11780;13.904;100.620;2022-09-09T15:49:57;101169.19;;;29.66;80.80
23223;BME280;11780;13.904;100.620;2022-09-09T15:52:28;101179.06;;;29.67;80.85
23223;BME280;11780;13.904;100.620;2022-09-09T15:54:59;101168.38;;;29.66;81.11
23223;BME280;11780;13.904;100.620;2022-09-09T15:57:31;101171.13;;;29.66;80.95